Kingwood, West Virginia
Current Conditions -  °F | °C
As of 5:53 PM on Friday 19 Dec 2014 (Local Time) from KMGW Reporting Station
Overcast Overcast  
Wind Chill: 30°   Ceiling: 2100
Heat Index: 30°   Visibility: 10mi
Dew Point: 19°   Wind: 3mph
Humidity: 64%   Direction: 290°WNW
Pressure: 30.23"   Gusts: NA
Location:  39.47°N, 79.68°W
Report Text: KMGW 192253Z 29003KT 10SM OVC021 M01/M07 A3023 RMK AO2 SLP251 T10111072
Loading
Personal Weather Stations






























Interactive Weather Map New forecast layout! Learn more

10-Day Weather Forecast

Advertisements
Track Severe Weather on mobile